Time;durP1;ratioP1;P1;durP2;ratioP2;P2;SDS_P1;SDS_P2;PMS_P1;PMS_P2;Temp;Humidity;BMP_temperature;BMP_pressure;BME280_temperature;BME280_humidity;BME280_pressure;Samples;Min_cycle;Max_cycle;Signal;HPM_P1;HPM_P2
2023/08/24 00:01:04;;;;;;;13.50;9.20;;;;;;;20.76;100.00;101013.10;110014;1240;69973;-77
2023/08/24 00:03:34;;;;;;;11.90;9.30;;;;;;;20.66;100.00;101011.92;109997;1241;62910;-77
2023/08/24 00:06:03;;;;;;;14.70;8.70;;;;;;;20.56;100.00;101011.45;110000;1241;58216;-78
2023/08/24 00:08:32;;;;;;;16.70;9.50;;;;;;;20.49;100.00;101017.49;109889;1241;60951;-76
2023/08/24 00:11:01;;;;;;;11.50;9.30;;;;;;;20.48;100.00;101019.92;110000;1241;74636;-76
2023/08/24 00:13:30;;;;;;;14.60;9.60;;;;;;;20.48;100.00;101020.98;110016;1240;60581;-76
2023/08/24 00:15:59;;;;;;;15.70;10.20;;;;;;;20.53;100.00;101015.33;110021;1241;70405;-76
2023/08/24 00:18:27;;;;;;;14.70;9.50;;;;;;;20.52;100.00;101020.17;110016;1241;73209;-76
2023/08/24 00:20:56;;;;;;;18.30;10.60;;;;;;;20.50;100.00;101022.18;109893;1243;58352;-76
2023/08/24 00:23:25;;;;;;;13.10;9.40;;;;;;;20.50;100.00;101022.14;110017;1242;58238;-75
2023/08/24 00:25:54;;;;;;;11.80;9.30;;;;;;;20.47;100.00;101015.47;109906;1241;63539;-76
2023/08/24 00:28:22;;;;;;;12.60;9.60;;;;;;;20.56;100.00;101014.80;110003;1241;70412;-75
2023/08/24 00:30:51;;;;;;;14.00;9.30;;;;;;;20.62;100.00;101015.16;109900;1241;60125;-76
2023/08/24 00:33:20;;;;;;;13.00;9.50;;;;;;;20.62;100.00;101015.73;109929;1240;62271;-75
2023/08/24 00:35:49;;;;;;;12.90;9.90;;;;;;;20.72;100.00;101013.20;109810;1244;61865;-76
2023/08/24 00:38:17;;;;;;;13.10;9.50;;;;;;;20.89;100.00;101007.95;109830;1241;60986;-75
2023/08/24 00:40:46;;;;;;;12.90;8.90;;;;;;;20.84;100.00;101010.33;109805;1241;63284;-77
2023/08/24 00:43:15;;;;;;;15.20;9.00;;;;;;;20.78;100.00;101009.73;109852;1245;61431;-77
2023/08/24 00:45:44;;;;;;;13.50;9.40;;;;;;;20.65;100.00;101003.34;109865;1242;69454;-76
2023/08/24 00:48:13;;;;;;;12.10;9.20;;;;;;;20.50;100.00;101006.58;109848;1242;74003;-77
2023/08/24 00:50:41;;;;;;;12.10;10.00;;;;;;;20.47;100.00;101005.55;109856;1242;57931;-76
2023/08/24 00:53:12;;;;;;;13.50;9.50;;;;;;;20.51;100.00;101004.06;109840;1241;58208;-77
2023/08/24 00:55:40;;;;;;;12.40;9.60;;;;;;;20.47;100.00;101001.67;109925;1241;73438;-76
2023/08/24 00:58:10;;;;;;;13.00;9.40;;;;;;;20.55;100.00;101000.54;109804;1241;71942;-76
2023/08/24 01:00:39;;;;;;;12.70;9.60;;;;;;;20.70;100.00;101004.59;109799;1240;70607;-75
2023/08/24 01:03:07;;;;;;;12.20;9.70;;;;;;;20.80;100.00;100998.27;109714;1242;73671;-75
2023/08/24 01:05:37;;;;;;;14.00;9.40;;;;;;;20.82;100.00;100996.83;109681;1242;63352;-76
2023/08/24 01:08:06;;;;;;;12.80;9.00;;;;;;;20.76;100.00;100991.66;109691;1240;60589;-76
2023/08/24 01:10:59;;;;;;;12.60;9.00;;;;;;;20.69;100.00;100995.52;109826;1241;74578;-75
2023/08/24 01:13:54;;;;;;;11.40;9.40;;;;;;;20.49;100.00;100992.56;110087;1242;71279;-76
2023/08/24 01:16:29;;;;;;;14.30;9.20;;;;;;;20.29;100.00;100994.02;109998;1241;69817;-75
2023/08/24 01:18:59;;;;;;;14.00;10.70;;;;;;;20.23;100.00;100990.80;109955;1244;73506;-75
2023/08/24 01:21:29;;;;;;;11.80;8.70;;;;;;;20.20;100.00;100993.29;110148;1242;57807;-76
2023/08/24 01:24:17;;;;;;;13.40;9.90;;;;;;;20.18;100.00;100996.17;109985;1241;60133;-76
2023/08/24 01:26:48;;;;;;;18.90;9.70;;;;;;;20.24;100.00;100994.58;110119;1241;73801;-76
2023/08/24 01:29:17;;;;;;;12.40;9.00;;;;;;;20.31;100.00;100994.48;110007;1241;71414;-75
2023/08/24 01:31:51;;;;;;;13.40;8.80;;;;;;;20.28;100.00;100994.30;110134;1241;70271;-75
2023/08/24 01:34:19;;;;;;;12.20;9.50;;;;;;;20.21;100.00;100997.03;110024;1241;73572;-75
2023/08/24 01:36:48;;;;;;;12.00;8.90;;;;;;;20.14;100.00;100995.66;109959;1245;58425;-75
2023/08/24 01:39:41;;;;;;;11.30;9.00;;;;;;;20.00;100.00;100994.38;109884;1245;57666;-76
2023/08/24 01:42:14;;;;;;;;;;;;;;;19.86;100.00;100995.30;109824;1246;63605;-76
2023/08/24 01:44:47;;;;;;;12.50;8.70;;;;;;;19.78;100.00;100995.45;109902;1241;72019;-76
2023/08/24 01:47:18;;;;;;;13.00;9.50;;;;;;;19.69;100.00;100993.26;109911;1245;60239;-76
2023/08/24 01:49:48;;;;;;;15.60;9.30;;;;;;;19.60;100.00;100991.77;109876;1245;63040;-76
2023/08/24 01:52:18;;;;;;;11.50;9.40;;;;;;;19.53;100.00;100991.17;109852;1245;57850;-77
2023/08/24 01:54:48;;;;;;;12.70;9.60;;;;;;;19.48;100.00;100987.86;109820;1244;57815;-77
2023/08/24 01:57:17;;;;;;;15.90;9.40;;;;;;;19.51;100.00;100989.33;109815;1245;62771;-77
2023/08/24 01:59:46;;;;;;;13.80;9.20;;;;;;;19.51;100.00;100989.48;109847;1242;72024;-77
2023/08/24 02:02:14;;;;;;;12.80;9.30;;;;;;;19.49;100.00;100988.80;109871;1241;61781;-76
2023/08/24 02:04:43;;;;;;;13.50;9.40;;;;;;;19.43;100.00;100993.34;109862;1244;62687;-77
2023/08/24 02:07:12;;;;;;;13.80;8.90;;;;;;;19.34;100.00;100993.21;109943;1242;60419;-77
2023/08/24 02:09:41;;;;;;;11.70;9.30;;;;;;;19.25;100.00;100985.00;109808;1241;61185;-77
2023/08/24 02:12:09;;;;;;;13.50;9.40;;;;;;;19.50;100.00;100992.06;109977;1240;75108;-77
2023/08/24 02:14:38;;;;;;;11.60;9.00;;;;;;;19.59;100.00;100992.87;109911;1241;63322;-77
2023/08/24 02:17:07;;;;;;;15.10;9.10;;;;;;;19.53;100.00;100994.88;109833;1244;59758;-77
2023/08/24 02:19:36;;;;;;;11.10;8.80;;;;;;;19.47;100.00;100993.48;109834;1245;71944;-77
2023/08/24 02:22:04;;;;;;;16.20;9.60;;;;;;;19.42;100.00;100990.62;109793;1244;62667;-77
2023/08/24 02:24:33;;;;;;;10.50;9.20;;;;;;;19.35;100.00;100984.63;109862;1245;57879;-76
2023/08/24 02:27:02;;;;;;;14.70;10.20;;;;;;;19.28;100.00;100983.48;109800;1245;65363;-76
2023/08/24 02:29:31;;;;;;;12.50;9.40;;;;;;;19.22;100.00;100983.55;109911;1241;71194;-77
2023/08/24 02:32:00;;;;;;;14.40;9.80;;;;;;;19.20;100.00;100986.45;109966;1240;60304;-77
2023/08/24 02:34:29;;;;;;;12.20;9.90;;;;;;;19.18;100.00;100984.32;109855;1244;63593;-77
2023/08/24 02:36:58;;;;;;;12.30;9.70;;;;;;;19.18;100.00;100991.92;109832;1244;62851;-77
2023/08/24 02:39:26;;;;;;;13.80;9.80;;;;;;;19.18;100.00;100990.88;109963;1241;60237;-77
2023/08/24 02:41:55;;;;;;;13.20;9.60;;;;;;;19.16;100.00;100993.05;109831;1244;63544;-77
2023/08/24 02:44:24;;;;;;;11.50;9.40;;;;;;;19.14;100.00;100991.21;109804;1245;61637;-77
2023/08/24 02:46:54;;;;;;;16.10;10.00;;;;;;;19.14;100.00;100992.34;109839;1241;70342;-77
2023/08/24 02:49:23;;;;;;;14.60;9.70;;;;;;;19.13;100.00;100989.92;109667;1241;74094;-77
2023/08/24 02:51:52;;;;;;;14.90;10.40;;;;;;;19.11;100.00;100990.59;109756;1244;63691;-77
2023/08/24 02:54:20;;;;;;;12.30;10.40;;;;;;;19.14;100.00;100992.14;109860;1240;59986;-76
2023/08/24 02:56:50;;;;;;;14.90;10.10;;;;;;;19.14;100.00;100994.49;109958;1241;74664;-77
2023/08/24 02:59:18;;;;;;;14.00;11.10;;;;;;;19.18;100.00;100992.59;109891;1244;72463;-77
2023/08/24 03:01:49;;;;;;;16.20;11.40;;;;;;;19.28;100.00;100989.48;109868;1241;70038;-77
2023/08/24 03:04:19;;;;;;;15.70;11.90;;;;;;;19.23;100.00;100995.95;110023;1242;63381;-77
2023/08/24 03:06:48;;;;;;;16.90;10.40;;;;;;;19.21;100.00;100999.89;109885;1244;57726;-77
2023/08/24 03:09:16;;;;;;;13.20;10.30;;;;;;;19.15;100.00;100998.73;109851;1244;61026;-77
2023/08/24 03:11:46;;;;;;;12.80;9.80;;;;;;;19.09;100.00;101002.95;109883;1241;63263;-77
2023/08/24 03:14:15;;;;;;;13.50;10.50;;;;;;;19.02;100.00;101004.90;109842;1241;71989;-76
2023/08/24 03:16:44;;;;;;;14.60;9.90;;;;;;;18.97;100.00;101007.46;109786;1241;70106;-75
2023/08/24 03:19:14;;;;;;;15.30;9.80;;;;;;;18.95;100.00;101009.02;109802;1241;74211;-76
2023/08/24 03:21:43;;;;;;;14.30;9.40;;;;;;;18.88;100.00;101010.16;109797;1244;64392;-76
2023/08/24 03:24:11;;;;;;;13.30;10.40;;;;;;;18.87;100.00;101017.00;109832;1241;60407;-76
2023/08/24 03:26:40;;;;;;;16.00;10.20;;;;;;;19.08;100.00;101021.67;109694;1247;64341;-75
2023/08/24 03:29:09;;;;;;;14.90;10.10;;;;;;;19.29;100.00;101031.20;109795;1241;60637;-76
2023/08/24 03:31:38;;;;;;;16.70;11.30;;;;;;;19.41;100.00;101032.77;109808;1241;69975;-76
2023/08/24 03:34:06;;;;;;;18.70;13.30;;;;;;;19.35;100.00;101035.48;109769;1241;74045;-76
2023/08/24 03:36:35;;;;;;;16.90;10.30;;;;;;;19.24;100.00;101038.02;109736;1241;62656;-76
2023/08/24 03:39:05;;;;;;;18.60;10.90;;;;;;;19.10;100.00;101037.43;109824;1243;57722;-76
2023/08/24 03:41:34;;;;;;;14.30;10.50;;;;;;;19.03;100.00;101035.13;109793;1241;74910;-76
2023/08/24 03:44:03;;;;;;;19.70;14.10;;;;;;;19.12;100.00;101036.48;109728;1241;72497;-76
2023/08/24 03:46:32;;;;;;;15.20;10.40;;;;;;;19.30;100.00;101037.10;109643;1241;70090;-76
2023/08/24 03:49:00;;;;;;;16.20;10.40;;;;;;;19.51;100.00;101039.14;109533;1241;73385;-75
2023/08/24 03:51:29;;;;;;;12.00;10.00;;;;;;;19.59;100.00;101042.75;109632;1244;58331;-76
2023/08/24 03:53:58;;;;;;;15.50;10.40;;;;;;;19.72;100.00;101042.02;109711;1242;57744;-77
2023/08/24 03:56:27;;;;;;;13.30;10.60;;;;;;;19.73;100.00;101041.77;109639;1241;62752;-77
2023/08/24 03:58:56;;;;;;;12.90;9.90;;;;;;;19.68;100.00;101041.42;109688;1241;61356;-77
2023/08/24 04:01:25;;;;;;;15.00;9.70;;;;;;;19.59;100.00;101038.44;109713;1241;70315;-77
2023/08/24 04:03:53;;;;;;;13.80;10.60;;;;;;;19.53;100.00;101042.21;109754;1241;72723;-77
2023/08/24 04:06:22;;;;;;;19.50;10.00;;;;;;;19.56;100.00;101045.98;109605;1244;63153;-77
2023/08/24 04:08:52;;;;;;;15.10;10.40;;;;;;;19.56;100.00;101051.34;109767;1241;58235;-78
2023/08/24 04:11:20;;;;;;;19.20;11.40;;;;;;;19.56;100.00;101053.95;109798;1243;73460;-77
2023/08/24 04:13:49;;;;;;;18.50;11.20;;;;;;;19.63;100.00;101054.17;109788;1241;61872;-76
2023/08/24 04:16:19;;;;;;;18.20;11.80;;;;;;;19.70;100.00;101052.73;109854;1241;60226;-75
2023/08/24 04:18:48;;;;;;;17.10;11.80;;;;;;;19.73;100.00;101054.91;109776;1241;63058;-76
2023/08/24 04:21:17;;;;;;;18.20;11.00;;;;;;;19.73;100.00;101055.71;109802;1241;58378;-76
2023/08/24 04:23:46;;;;;;;19.00;12.00;;;;;;;19.79;100.00;101053.88;109827;1244;60974;-76
2023/08/24 04:26:14;;;;;;;16.70;12.10;;;;;;;19.89;100.00;101052.45;109843;1241;74866;-76
2023/08/24 04:28:43;;;;;;;20.00;12.00;;;;;;;19.95;100.00;101051.95;109854;1243;61991;-75
2023/08/24 04:31:12;;;;;;;18.80;13.10;;;;;;;20.04;100.00;101053.35;109849;1241;69638;-76
2023/08/24 04:33:40;;;;;;;18.00;12.30;;;;;;;20.12;100.00;101054.91;109852;1241;74180;-76
2023/08/24 04:36:09;;;;;;;19.40;13.20;;;;;;;20.20;100.00;101054.29;109843;1242;58253;-76
2023/08/24 04:38:38;;;;;;;17.50;12.50;;;;;;;20.27;100.00;101054.88;109826;1241;58251;-76
2023/08/24 04:41:09;;;;;;;17.10;12.60;;;;;;;20.33;100.00;101057.05;109811;1243;74308;-77
2023/08/24 04:43:38;;;;;;;20.80;12.60;;;;;;;20.44;100.00;101052.55;109817;1241;72659;-76
2023/08/24 04:46:06;;;;;;;18.10;13.50;;;;;;;20.53;100.00;101049.14;109809;1241;70985;-76
2023/08/24 04:48:35;;;;;;;21.00;13.40;;;;;;;20.61;100.00;101054.01;109707;1241;63563;-76
2023/08/24 04:51:04;;;;;;;18.20;13.80;;;;;;;20.72;100.00;101051.42;109768;1244;61888;-76
2023/08/24 04:53:33;;;;;;;19.80;14.20;;;;;;;20.79;100.00;101053.28;109800;1242;57783;-76
2023/08/24 04:56:01;;;;;;;19.60;13.10;;;;;;;20.89;100.00;101056.24;109836;1241;65250;-77
2023/08/24 04:58:33;;;;;;;21.10;13.30;;;;;;;20.99;100.00;101056.95;109861;1241;60730;-76
2023/08/24 05:01:02;;;;;;;26.90;12.10;;;;;;;21.15;100.00;101062.73;109813;1241;70035;-77
2023/08/24 05:03:30;;;;;;;20.80;13.40;;;;;;;21.25;100.00;101057.76;109770;1241;73213;-76
2023/08/24 05:05:59;;;;;;;22.70;14.40;;;;;;;21.26;100.00;101061.55;109757;1241;57920;-77
2023/08/24 05:08:28;;;;;;;20.40;14.40;;;;;;;21.29;100.00;101059.25;109800;1241;58337;-77
2023/08/24 05:10:56;;;;;;;18.30;12.50;;;;;;;21.31;100.00;101066.13;109870;1241;74276;-77
2023/08/24 05:13:25;;;;;;;22.00;13.90;;;;;;;21.31;100.00;101065.08;109837;1241;63092;-77
2023/08/24 05:15:54;;;;;;;19.60;13.30;;;;;;;21.30;100.00;101063.58;109802;1241;59801;-77
2023/08/24 05:18:23;;;;;;;22.70;15.10;;;;;;;21.24;100.00;101058.73;109812;1241;72873;-77
2023/08/24 05:20:51;;;;;;;19.50;13.80;;;;;;;21.45;100.00;101067.45;109821;1243;62220;-77
2023/08/24 05:23:21;;;;;;;21.20;14.20;;;;;;;21.50;100.00;101071.47;109878;1241;58109;-77
2023/08/24 05:25:49;;;;;;;23.10;14.10;;;;;;;21.54;100.00;101067.95;109817;1241;74113;-76
2023/08/24 05:28:18;;;;;;;22.00;14.70;;;;;;;21.67;100.00;101065.44;109834;1241;62046;-77
2023/08/24 05:30:47;;;;;;;20.00;13.50;;;;;;;21.83;100.00;101064.96;109850;1241;69404;-77
2023/08/24 05:33:15;;;;;;;17.00;13.00;;;;;;;22.01;100.00;101065.59;109820;1241;74142;-77
2023/08/24 05:35:44;;;;;;;16.70;13.50;;;;;;;22.10;100.00;101068.17;109839;1243;58169;-77
2023/08/24 05:38:17;;;;;;;17.80;13.80;;;;;;;22.13;100.00;101066.04;109861;1241;57740;-77
2023/08/24 05:40:49;;;;;;;;;;;;;;;22.19;100.00;101062.27;109813;1241;64583;-77
2023/08/24 05:43:18;;;;;;;15.60;13.60;;;;;;;22.34;100.00;101061.11;109769;1241;72527;-76
2023/08/24 05:45:48;;;;;;;18.00;13.10;;;;;;;22.42;100.00;101056.81;109821;1241;70622;-77
2023/08/24 05:48:17;;;;;;;15.00;11.00;;;;;;;22.54;100.00;101056.67;109772;1241;71893;-76
2023/08/24 05:50:47;;;;;;;15.90;12.70;;;;;;;22.61;100.00;101056.67;109811;1243;58356;-75
2023/08/24 05:53:16;;;;;;;17.70;11.90;;;;;;;22.74;100.00;101054.91;109835;1241;60367;-75
2023/08/24 05:55:44;;;;;;;19.60;13.10;;;;;;;22.83;100.00;101057.95;109802;1241;74018;-76
2023/08/24 05:58:13;;;;;;;21.40;12.90;;;;;;;22.87;100.00;101056.83;109861;1241;62356;-77
2023/08/24 06:00:42;;;;;;;16.60;12.80;;;;;;;22.95;100.00;101055.98;109780;1241;60442;-76
2023/08/24 06:03:11;;;;;;;16.00;12.20;;;;;;;23.08;100.00;101056.73;109696;1241;74404;-77
2023/08/24 06:05:39;;;;;;;16.50;12.20;;;;;;;23.14;100.00;101055.84;109647;1241;62706;-76
2023/08/24 06:08:08;;;;;;;19.10;13.10;;;;;;;23.18;100.00;101055.16;109727;1241;57772;-77
2023/08/24 06:10:37;;;;;;;16.80;12.00;;;;;;;23.26;100.00;101054.73;109836;1241;62832;-77
2023/08/24 06:13:06;;;;;;;15.50;12.90;;;;;;;23.32;100.00;101053.81;109798;1241;71914;-78
2023/08/24 06:15:35;;;;;;;15.70;11.80;;;;;;;23.41;100.00;101051.27;109761;1241;70540;-77
2023/08/24 06:18:04;;;;;;;14.90;11.60;;;;;;;23.52;100.00;101051.56;109689;1241;63088;-77
2023/08/24 06:20:33;;;;;;;16.50;12.40;;;;;;;23.61;100.00;101052.05;109797;1241;57734;-77
2023/08/24 06:23:02;;;;;;;16.40;12.00;;;;;;;23.70;100.00;101051.39;109738;1241;57778;-77
2023/08/24 06:25:31;;;;;;;16.40;12.30;;;;;;;23.74;100.00;101051.39;109781;1241;63458;-77
2023/08/24 06:28:01;;;;;;;14.30;11.50;;;;;;;23.90;100.00;101050.52;109753;1241;70615;-77
2023/08/24 06:30:36;;;;;;;16.30;11.30;;;;;;;24.00;100.00;101047.59;109864;1241;59726;-77
2023/08/24 06:33:06;;;;;;;16.10;10.90;;;;;;;24.08;100.00;101050.58;109835;1241;73579;-76
2023/08/24 06:35:35;;;;;;;14.10;11.30;;;;;;;24.18;100.00;101051.33;109697;1244;58191;-76
2023/08/24 06:38:04;;;;;;;16.00;11.70;;;;;;;24.21;100.00;101050.86;109793;1241;58094;-77
2023/08/24 06:40:33;;;;;;;14.80;11.10;;;;;;;24.27;100.00;101051.53;109860;1241;71730;-77
2023/08/24 06:43:02;;;;;;;14.20;11.40;;;;;;;24.30;100.00;101047.62;109807;1241;71334;-77
2023/08/24 06:45:31;;;;;;;13.60;11.10;;;;;;;24.27;100.00;101052.40;109818;1241;70825;-77
2023/08/24 06:48:00;;;;;;;12.70;10.70;;;;;;;24.25;100.00;101051.15;109772;1241;74082;-77
2023/08/24 06:50:29;;;;;;;14.80;11.00;;;;;;;24.44;100.00;101053.05;109817;1241;58233;-77
2023/08/24 06:52:58;;;;;;;13.70;11.60;;;;;;;24.57;100.00;101049.25;109866;1241;61317;-77
2023/08/24 06:55:27;;;;;;;13.20;10.20;;;;;;;24.65;100.00;101044.63;109855;1241;74639;-77
2023/08/24 06:57:56;;;;;;;12.00;10.40;;;;;;;24.70;100.00;101049.19;109828;1241;72602;-77
2023/08/24 07:00:25;;;;;;;11.50;9.30;;;;;;;24.82;100.00;101045.14;109883;1241;70735;-77
2023/08/24 07:02:54;;;;;;;11.80;9.30;;;;;;;25.00;100.00;101048.34;109862;1241;74275;-77
2023/08/24 07:05:23;;;;;;;14.90;9.60;;;;;;;25.16;100.00;101045.45;109862;1242;62788;-77
2023/08/24 07:07:53;;;;;;;15.10;9.60;;;;;;;25.28;100.00;101042.95;109760;1241;57709;-77
2023/08/24 07:10:22;;;;;;;11.50;9.00;;;;;;;25.40;100.00;101044.08;109768;1245;64195;-78
2023/08/24 07:12:51;;;;;;;14.30;9.70;;;;;;;25.48;100.00;101043.81;109835;1242;61439;-78
2023/08/24 07:15:20;;;;;;;11.70;8.50;;;;;;;25.57;100.00;101042.89;109750;1241;69972;-78
2023/08/24 07:17:48;;;;;;;11.50;9.60;;;;;;;25.65;100.00;101040.16;109653;1241;73517;-78
2023/08/24 07:20:18;;;;;;;13.60;9.10;;;;;;;25.68;100.00;101039.06;109664;1242;58278;-78
2023/08/24 07:22:46;;;;;;;15.00;8.70;;;;;;;25.89;100.00;101035.21;109775;1241;60436;-77
2023/08/24 07:25:15;;;;;;;10.60;8.20;;;;;;;26.05;100.00;101040.54;109819;1241;64615;-77
2023/08/24 07:27:44;;;;;;;9.40;7.80;;;;;;;26.30;100.00;101035.04;109830;1241;61423;-77
2023/08/24 07:30:13;;;;;;;11.80;9.20;;;;;;;26.39;100.00;101031.67;109840;1242;58985;-78
2023/08/24 07:33:05;;;;;;;12.00;8.80;;;;;;;26.35;100.00;101023.97;109778;1241;63279;-77
2023/08/24 07:35:34;;;;;;;11.80;8.00;;;;;;;26.62;100.00;101032.44;109776;1242;61159;-77
2023/08/24 07:38:04;;;;;;;10.80;8.10;;;;;;;26.76;100.00;101030.64;109850;1241;57771;-77
2023/08/24 07:40:33;;;;;;;12.40;8.50;;;;;;;26.82;100.00;101028.48;109791;1242;63357;-77
2023/08/24 07:43:02;;;;;;;11.90;8.10;;;;;;;26.82;100.00;101024.29;109857;1243;60631;-77
2023/08/24 07:45:31;;;;;;;10.70;7.50;;;;;;;26.83;100.00;101024.93;109863;1243;58987;-77
2023/08/24 07:48:00;;;;;;;11.70;7.90;;;;;;;26.94;100.00;101023.95;109805;1241;73163;-77
2023/08/24 07:50:29;;;;;;;11.10;8.20;;;;;;;27.07;100.00;101022.03;109815;1241;59316;-77
2023/08/24 07:52:57;;;;;;;9.60;8.10;;;;;;;27.20;100.00;101020.55;109607;1241;331071;-77
2023/08/24 07:55:26;;;;;;;9.10;7.00;;;;;;;27.30;100.00;101019.40;109832;1241;74461;-78
2023/08/24 07:57:55;;;;;;;7.30;6.30;;;;;;;27.40;99.69;101017.73;109841;1244;61937;-78
2023/08/24 08:00:24;;;;;;;9.90;7.30;;;;;;;27.41;99.47;101014.98;109902;1243;59233;-78
2023/08/24 08:02:53;;;;;;;9.00;7.00;;;;;;;27.55;99.77;101022.90;109825;1241;63031;-76
2023/08/24 08:05:24;;;;;;;11.60;7.70;;;;;;;27.63;99.87;101020.64;109799;1244;58258;-77
2023/08/24 08:07:53;;;;;;;7.80;6.90;;;;;;;27.71;99.16;101020.92;109832;1241;61250;-77
2023/08/24 08:10:21;;;;;;;10.40;7.40;;;;;;;27.78;98.05;101019.49;109868;1241;74766;-76
2023/08/24 08:12:50;;;;;;;13.20;7.10;;;;;;;27.72;96.34;101019.80;109788;1242;61337;-78
2023/08/24 08:15:19;;;;;;;8.20;6.70;;;;;;;27.75;97.96;101010.53;109868;1242;59825;-76
2023/08/24 08:17:49;;;;;;;9.90;7.20;;;;;;;27.89;97.40;101014.45;109778;1244;63079;-77
2023/08/24 08:20:18;;;;;;;10.10;6.70;;;;;;;28.01;95.78;101014.82;109759;1244;60970;-77
2023/08/24 08:22:47;;;;;;;10.30;6.50;;;;;;;28.06;92.36;101017.72;109840;1241;58175;-77
2023/08/24 08:25:21;;;;;;;11.10;6.10;;;;;;;28.11;89.22;101011.58;109837;1241;65544;-77
2023/08/24 08:27:50;;;;;;;11.80;7.90;;;;;;;28.22;88.65;101010.86;109836;1241;72871;-78
2023/08/24 08:30:20;;;;;;;9.00;7.30;;;;;;;28.13;89.26;101010.38;109819;1241;70455;-77
2023/08/24 08:32:50;;;;;;;11.60;7.30;;;;;;;28.34;89.56;101007.59;109818;1243;74180;-77
2023/08/24 08:35:21;;;;;;;10.70;7.10;;;;;;;28.28;86.29;101008.16;109792;1242;60873;-76
2023/08/24 08:37:51;;;;;;;10.20;6.80;;;;;;;28.41;85.58;101003.15;109691;1241;58193;-78
2023/08/24 08:40:21;;;;;;;8.00;6.10;;;;;;;28.57;85.47;100995.34;109667;1241;65583;-78
2023/08/24 08:42:50;;;;;;;7.60;5.90;;;;;;;28.66;82.67;100988.16;109666;1241;72057;-77
2023/08/24 08:45:24;;;;;;;11.00;5.60;;;;;;;28.99;83.75;100994.23;109617;1241;71343;-77
2023/08/24 08:48:04;;;;;;;9.50;5.80;;;;;;;29.26;82.41;100995.29;109648;1242;62918;-77
2023/08/24 08:50:35;;;;;;;7.90;5.30;;;;;;;29.44;80.43;100990.05;109734;1241;60208;-77
2023/08/24 08:53:04;;;;;;;7.00;5.60;;;;;;;29.49;79.58;100993.91;109773;1241;62226;-77
2023/08/24 08:55:33;;;;;;;7.40;6.20;;;;;;;29.55;77.77;100993.07;109652;1241;73928;-77
2023/08/24 08:58:03;;;;;;;11.40;7.30;;;;;;;29.56;77.18;100992.50;109718;1243;71609;-77
2023/08/24 09:00:32;;;;;;;10.30;5.00;;;;;;;29.60;75.96;100987.30;109641;1241;71158;-77
2023/08/24 09:03:03;;;;;;;10.60;5.40;;;;;;;29.57;75.90;100990.36;109655;1242;63786;-76
2023/08/24 09:05:33;;;;;;;7.50;5.40;;;;;;;29.51;75.41;100991.60;109708;1241;61623;-77
2023/08/24 09:08:03;;;;;;;7.50;5.50;;;;;;;29.38;74.13;100988.77;109837;1241;60151;-77
2023/08/24 09:10:31;;;;;;;7.70;5.60;;;;;;;29.45;74.51;100985.64;109791;1244;65000;-77
2023/08/24 09:13:00;;;;;;;6.40;5.20;;;;;;;29.65;73.42;100981.80;109843;1242;62216;-77
2023/08/24 09:15:35;;;;;;;7.30;5.20;;;;;;;30.01;72.30;100978.34;109834;1242;59193;-76
2023/08/24 09:18:04;;;;;;;9.70;5.00;;;;;;;30.26;70.40;100971.66;109656;1241;64194;-77
2023/08/24 09:20:34;;;;;;;8.10;5.50;;;;;;;30.66;70.28;100967.71;109598;1244;58274;-76
2023/08/24 09:23:03;;;;;;;8.20;4.80;;;;;;;30.89;69.32;100969.23;109693;1241;58193;-77
2023/08/24 09:25:32;;;;;;;7.80;5.50;;;;;;;30.99;68.77;100965.81;109534;1244;63536;-77
2023/08/24 09:28:04;;;;;;;7.10;5.30;;;;;;;31.01;68.71;100964.19;109700;1242;60600;-77
2023/08/24 09:30:37;;;;;;;8.80;5.30;;;;;;;31.18;68.61;100965.25;109580;1245;59782;-76
2023/08/24 09:33:10;;;;;;;7.90;5.40;;;;;;;31.23;67.78;100960.95;109603;1244;63101;-77
2023/08/24 09:35:40;;;;;;;8.70;5.60;;;;;;;30.83;67.40;100955.02;109554;1244;61383;-78
2023/08/24 09:38:23;;;;;;;7.40;4.70;;;;;;;30.90;67.09;100958.73;109643;1245;58276;-77
2023/08/24 09:40:54;;;;;;;7.10;4.90;;;;;;;30.76;66.70;100958.44;109675;1241;72848;-77
2023/08/24 09:43:23;;;;;;;9.30;5.20;;;;;;;30.76;67.31;100955.26;109622;1241;72393;-77
2023/08/24 09:45:55;;;;;;;6.90;5.30;;;;;;;30.57;66.89;100949.84;109534;1245;59359;-77
2023/08/24 09:48:24;;;;;;;6.60;5.30;;;;;;;30.79;65.91;100949.99;109632;1241;73807;-77
2023/08/24 09:51:00;;;;;;;7.10;5.10;;;;;;;31.09;65.47;100950.83;109531;1243;58347;-77
2023/08/24 09:53:32;;;;;;;;;;;;;;;31.43;65.39;100950.99;109541;1241;57789;-77
2023/08/24 09:56:02;;;;;;;6.80;4.70;;;;;;;31.85;64.67;100950.77;109631;1241;74956;-77
2023/08/24 09:58:31;;;;;;;7.40;4.70;;;;;;;32.06;63.89;100951.48;109509;1247;62344;-77
2023/08/24 10:01:03;;;;;;;9.80;4.90;;;;;;;31.97;63.41;100953.72;109650;1241;59690;-78
2023/08/24 10:03:34;;;;;;;7.40;4.60;;;;;;;31.87;62.53;100950.75;109699;1241;65138;-78
2023/08/24 10:06:04;;;;;;;7.50;4.70;;;;;;;31.86;61.92;100944.09;109692;1244;58270;-78
2023/08/24 10:08:43;;;;;;;6.80;4.40;;;;;;;31.85;62.29;100944.36;109710;1241;57799;-78
2023/08/24 10:11:17;;;;;;;7.00;5.40;;;;;;;31.87;61.98;100935.09;109663;1241;74717;-78
2023/08/24 10:14:02;;;;;;;6.80;4.70;;;;;;;31.99;61.71;100930.73;109648;1241;71096;-77
2023/08/24 10:16:31;;;;;;;7.70;4.80;;;;;;;32.10;60.90;100927.16;109692;1241;70727;-77
2023/08/24 10:19:02;;;;;;;5.60;4.50;;;;;;;32.14;60.54;100923.39;109653;1241;73337;-78
2023/08/24 10:21:31;;;;;;;5.50;4.50;;;;;;;32.21;60.56;100917.22;109708;1242;61666;-78
2023/08/24 10:24:02;;;;;;;7.10;4.80;;;;;;;32.00;58.61;100916.90;109800;1241;61347;-78
2023/08/24 10:26:32;;;;;;;6.40;5.10;;;;;;;31.87;59.25;100913.03;109846;1241;74236;-77
2023/08/24 10:29:04;;;;;;;5.90;4.60;;;;;;;32.29;58.08;100916.30;109887;1241;63854;-77
2023/08/24 10:31:34;;;;;;;5.50;4.70;;;;;;;32.75;57.89;100914.08;109717;1241;61597;-77
2023/08/24 10:34:06;;;;;;;6.10;4.60;;;;;;;33.09;57.87;100909.66;109751;1241;62842;-77
2023/08/24 10:36:41;;;;;;;8.70;4.60;;;;;;;33.26;57.32;100904.95;109845;1243;58325;-77
2023/08/24 10:39:11;;;;;;;7.50;4.30;;;;;;;33.55;55.92;100897.16;109852;1241;61038;-77
2023/08/24 10:41:53;;;;;;;7.30;4.90;;;;;;;33.21;54.76;100897.20;109834;1242;74148;-76
2023/08/24 10:44:35;;;;;;;;;;;;;;;33.31;55.45;100900.39;109788;1241;62873;-77
2023/08/24 10:47:23;;;;;;;6.70;4.50;;;;;;;33.68;55.04;100896.71;109792;1244;71215;-78
2023/08/24 10:49:55;;;;;;;6.00;4.50;;;;;;;33.42;54.18;100894.39;109778;1241;74140;-77
2023/08/24 10:52:30;;;;;;;9.00;4.40;;;;;;;33.79;53.57;100887.20;109835;1241;61415;-78
2023/08/24 10:55:02;;;;;;;7.40;4.70;;;;;;;33.65;53.90;100886.95;109855;1241;61528;-77
2023/08/24 10:57:41;;;;;;;7.40;4.40;;;;;;;33.99;52.82;100884.58;109879;1241;64186;-78
2023/08/24 11:00:22;;;;;;;6.20;4.30;;;;;;;33.93;52.50;100885.00;109778;1241;71935;-78
2023/08/24 11:02:52;;;;;;;5.80;4.30;;;;;;;33.73;52.96;100881.13;109765;1241;59576;-77
2023/08/24 11:05:30;;;;;;;6.40;4.80;;;;;;;33.55;52.87;100873.95;109851;1241;63299;-77
2023/08/24 11:08:05;;;;;;;5.90;4.40;;;;;;;33.35;52.79;100866.98;109792;1242;60262;-77
2023/08/24 11:10:43;;;;;;;6.20;4.50;;;;;;;33.45;52.23;100861.33;109729;1241;60999;-78
2023/08/24 11:13:28;;;;;;;5.30;4.80;;;;;;;34.05;51.73;100857.72;109817;1241;65852;-77
2023/08/24 11:15:58;;;;;;;7.20;4.40;;;;;;;34.61;49.19;100857.50;109718;1241;62817;-77
2023/08/24 11:18:28;;;;;;;6.30;4.20;;;;;;;34.21;49.16;100853.20;109737;1241;71276;-78